Aérodrome :
LOGIN :

S'inscrire | Disclaimer

   EN    FR    IT 

 










Légende :    VFR   VFR Marginal   IFR   IFR Intensif   IFR Très Intensif
Visi : 
Plafond : 
>= 8 km
>= 3000ft
5 à 8 km
1000 à 3000 ft
1500m à 5 km
500 à 1000 ft
800 à 1500m
200 à 500 ft
< 800m
< 200 ft
Symboles :   Orages  Brouillard  Fortes neiges  Fortes précipitations  Vent > 20 kt
SIGMETs :   Divers  Orages  Givrage  Turbulence  Onde Orograph.  Cendres Volcan.







- Altitude de l'aérodrome : 13 ft
- Code IATA : CEQ
- Voir les cartes d'approche


LFMD - Cannes Mandelieu

DERNIER METAR :
  • 230800Z AUTO VRB03KT 9999 OVC026 26/21 Q1018 TEMPO BKN012 BECMG 08015KT

METARs EXPIRÉS :
  • 230730Z AUTO 35003KT 300V040 9999 OVC028 26/20 Q1018 TEMPO BKN012 BECMG 08015KT
  • 230700Z AUTO VRB01KT 9999 OVC029 27/21 Q1018 TEMPO BKN012 BECMG 08015KT
  • 230630Z AUTO VRB02KT 9999 OVC028 24/21 Q1018 TEMPO BKN012 BECMG 08015KT
  • 230600Z AUTO VRB02KT 9999 OVC027 22/20 Q1018 TEMPO BKN012 BECMG 08015KT
  • 230530Z AUTO VRB02KT 9999 BKN023 BKN028 22/20 Q1018 TEMPO BKN012 BECMG 08015KT

TAF TAF LFMD
Valide du 23 à 09h jusqu'au 24 à 09h UTC


230800Z 2309/2409 13010KT 9999 BKN025
BECMG 2312/2314 CAVOK
PROB30
TEMPO 2315/2320 FEW040CB SCT130
TEMPO 2321/2409 07008KT BKN012
ATIS : +33 4 93 48 73 23
Pas de NOTAMs connus pour ce terrain.



MET'MAP, la Météo Aéronautique d'un coup d'oeil ! - Copyright ORBIFLY Décembre 2007 - Disclaimer

ORBIFLY MET'MAP TEAM :

Programmation & Développement : Alexandra Zaïnal
Conception & Développement : Baudouin d'Aumeries
Co-Programmation & Développement : Marc-Olivier Méhu
Soutien technique & logistique : Manuel Goepfert

Contact : metmap@orbifly.com




SOURCES & CREDITS :

   NOAA